Tenerife > ESTACION METEOROLÓGICA Güímar

DATOS ACTUALES Online

Ultima actulizacion 52 minutos

22.4 ºC

Temperatura

56

Humedad (%)

1020.4

Presión (mb)

0

Precipitación (mm)

11.2 NO

Viento (Km/h)

DATOS DIARIOS

Temperatura últimas 24 horas (ºC)

Humedad últimas 24 horas (%)

Presión atmosférica últimas 24 horas (mb)

Precipitaciones últimas 23 horas (mm)

Viento últimas 24 horas (Km/h)

Hora Temperatura (°C) ºC Precipitación (mm) mm Presión (mb) mb Humedad (%) % Viento (Km/h) km/h
28 - 10:00 23 0 1020 50 8.8 NO
28 - 11:00 21.3 0 1021 71 9.3 NO
28 - 12:00 22.8 0 1021 63 9.7 NO
28 - 13:00 22.5 0 1021 60 10.8 NO
28 - 14:00 23.6 0 1020 55 10.9 NO
28 - 15:00 24.6 0 1020 48 10.8 NO
28 - 16:00 25 0 1020 49 11.5 NO
28 - 17:00 24.8 0 1019 47 12 NO
28 - 18:00 24.3 0 1019 50 11.8 NO
28 - 19:00 22.7 0 1019 57 12.3 NO
28 - 20:00 21.7 0 1020 64 11 NO
28 - 21:00 21 0 1019 65 10.2 NO
28 - 22:00 20.9 0 1020 63 8.2 NO
28 - 23:00 21 0 1021 63 7 NO
29 - 00:00 20.7 0 1021 66 9.3 NO
29 - 01:00 20.5 0 1020 65 7.3 NO
29 - 02:00 19.7 0 1020 71 4.8 NO
29 - 03:00 19.4 0 1020 69 5.2 NO
29 - 04:00 19.7 0 1019 68 6 NO
29 - 05:00 18.5 0 1020 72 1.8 S
29 - 06:00 17.6 0 1020 72 1.6 NW
29 - 07:00 19.5 0 1020 70 5.5 N
29 - 08:00 19.7 0 1020 67 9.8 NO
29 - 09:00 21.1 0 1020 60 10.9 NO
29 - 10:00 22.4 0 1020 56 11.2 NO
Apalmet utiliza cookies propias y de terceros para mejorar la usabilidad y la experiencia web. Política de cookies.